Latest Weather Observations for Thredbo Top Station

IDN60801

Issued at 11:03 am EDT Monday 8 February 2016 (issued every 30 minutes, with the page automatically refreshed every 10 minutes)

About weather observations | Map of weather stations | Latest weather observations for NSW | Other Formats
Station Details ID: 071032 Name: THREDBO AWS Lat: -36.49 Lon: 148.29 Height: 1957.0 m
Data from the previous 72 hours. | See also: Recent months at Thredbo Top Station
Date/Time
EDT
Temp
°C
App
Temp
°C
Dew
Point
Rel
Hum
%
Delta-T
°C
Wind Press
QNH
hPa
Press
MSL
hPa
Rain
since 9 am
mm
Dir
 
Spd
km/h
Gust
km/h
Spd
kts
Gust
kts
08/11:00am 15.6 9.3 7.4 58 4.5 SSW 30 54 16 29 1029.1 1020.5 0.0
08/10:41am 15.6 9.8 8.1 61 4.2 S 28 46 15 25 1029.0 1020.4 0.0
08/10:30am 15.6 10.2 7.9 60 4.3 S 26 39 14 21 1029.0 1020.4 0.0
08/10:00am 16.0 11.2 7.5 57 4.7 S 22 41 12 22 1029.0 1020.4 0.0
08/09:30am 15.5 11.1 7.5 59 4.4 S 20 35 11 19 1028.8 1020.3 0.0
08/09:00am 14.6 10.2 6.7 59 4.2 S 19 28 10 15 1028.8 1020.3 0.0
08/08:30am 13.9 9.8 6.0 59 4.2 S 17 24 9 13 1028.7 1020.1 0.0
08/08:00am 13.2 8.9 5.4 59 4.1 S 17 24 9 13 1028.6 1020.0 0.0
08/07:30am 12.1 9.5 6.2 67 3.1 S 9 17 5 9 1028.3 1019.8 0.0
08/07:00am 11.0 8.8 6.2 72 2.5 SSW 7 13 4 7 1028.1 1019.5 0.0
08/06:30am 9.7 6.9 5.1 73 2.3 SW 9 13 5 7 1028.0 1019.4 0.0
08/06:00am 9.6 8.0 4.6 71 2.5 WSW 2 4 1 2 1027.6 1019.0 0.0
08/05:30am 8.0 6.5 2.9 70 2.4 CALM 0 4 0 2 1027.4 1018.8 0.0
08/05:00am 7.8 6.3 3.1 72 2.2 CALM 0 2 0 1 1027.5 1018.9 0.0
08/04:30am 7.8 6.4 3.3 73 2.2 CALM 0 2 0 1 1027.5 1018.9 0.0
08/04:00am 7.5 5.7 3.2 74 2.0 WNW 2 4 1 2 1027.5 1018.9 0.0
08/03:30am 7.5 5.8 2.0 68 2.6 CALM 0 2 0 1 1027.6 1019.0 0.0
08/03:00am 7.4 5.9 3.1 74 2.0 CALM 0 0 0 0 1027.7 1019.1 0.0
08/02:30am 7.8 5.4 2.3 68 2.6 NW 4 7 2 4 1027.7 1019.1 0.0
08/02:00am 8.3 6.3 2.1 65 2.9 NNW 2 4 1 2 1027.9 1019.3 0.0
08/01:30am 8.6 6.5 2.0 63 3.1 NNW 2 4 1 2 1027.9 1019.3 0.0
08/01:00am 8.3 6.7 2.3 66 2.8 CALM 0 4 0 2 1028.0 1019.4 0.0
08/12:30am 10.3 8.3 2.2 57 3.9 S 2 9 1 5 1028.2 1019.6 0.0
08/12:00am 11.4 7.3 2.2 53 4.4 SSE 13 24 7 13 1028.2 1019.6 0.0
 
Date/Time
EDT
Temp
°C
App
Temp
°C
Dew
Point
Rel
Hum
%
Delta-T
°C
Wind Press
QNH
hPa
Press
MSL
hPa
Rain
since 9 am
mm
Dir
 
Spd
km/h
Gust
km/h
Spd
kts
Gust
kts
07/11:30pm 11.3 7.4 3.3 58 3.9 SSE 13 20 7 11 1028.2 1019.6 0.0
07/11:00pm 10.7 7.2 1.5 53 4.3 S 9 22 5 12 1028.2 1019.6 0.0
07/10:30pm 11.1 6.6 1.9 53 4.4 S 15 24 8 13 1028.2 1019.6 0.0
07/10:00pm 11.6 6.9 3.1 56 4.2 S 17 30 9 16 1028.2 1019.6 0.0
07/09:30pm 11.1 7.9 3.2 58 3.9 S 9 19 5 10 1028.0 1019.4 0.0
07/09:00pm 11.7 9.0 3.7 58 4.0 S 7 15 4 8 1027.7 1019.1 0.0
07/08:30pm 12.7 8.9 5.8 63 3.6 SSE 15 24 8 13 1027.4 1018.8 0.0
07/08:00pm 12.3 9.7 3.3 54 4.5 S 6 13 3 7 1027.1 1018.5 0.0
07/07:30pm 13.2 10.3 4.4 55 4.5 S 9 13 5 7 1026.8 1018.1 0.0
07/07:00pm 14.8 11.3 5.6 54 4.8 S 13 20 7 11 1026.3 1017.6 0.0
07/06:30pm 15.6 11.3 5.2 50 5.5 S 17 28 9 15 1026.0 1017.4 0.0
07/06:00pm 16.2 12.9 6.6 53 5.2 SSE 13 22 7 12 1025.9 1017.2 0.0
07/05:30pm 17.0 12.7 7.9 55 5.1 S 20 30 11 16 1025.8 1017.1 0.0
07/05:00pm 17.3 13.9 9.0 58 4.7 SSE 17 26 9 14 1025.7 1017.0 0.0
07/04:30pm 16.6 13.4 8.6 59 4.5 S 15 22 8 12 1025.8 1017.1 0.0
07/04:00pm 16.1 12.5 8.3 60 4.4 SSE 17 30 9 16 1025.7 1017.0 0.0
07/03:30pm 16.1 13.5 9.5 65 3.8 SSE 13 22 7 12 1025.7 1017.0 0.0
07/03:00pm 17.1 14.2 9.5 61 4.4 SSE 15 28 8 15 1025.8 1017.1 0.0
07/02:30pm 17.3 14.0 9.5 60 4.5 SSE 17 24 9 13 1025.8 1017.1 0.0
07/02:00pm 16.4 13.4 9.3 63 4.1 SSE 15 24 8 13 1025.8 1017.1 0.0
07/01:30pm 16.8 13.9 9.5 62 4.2 SSW 15 24 8 13 1025.8 1017.1 0.0
07/01:00pm 16.7 13.4 9.4 62 4.2 S 17 26 9 14 1025.8 1017.1 0.0
07/12:30pm 17.7 15.3 7.2 50 5.8 SE 9 19 5 10 1025.8 1017.1 0.0
07/12:00pm 16.8 14.3 8.2 57 4.8 SSE 11 22 6 12 1025.8 1017.1 0.0
07/11:30am 16.4 14.2 7.9 57 4.7 S 9 24 5 13 1025.9 1017.2 0.0
07/11:00am 15.9 12.0 7.1 56 4.8 S 17 26 9 14 1025.9 1017.2 0.0
07/10:30am 15.3 11.6 4.4 48 5.7 SSW 13 28 7 15 1026.0 1017.4 0.0
07/10:00am 15.4 12.4 5.9 53 5.1 SSW 11 20 6 11 1025.9 1017.2 0.0
07/09:30am 14.7 10.7 2.6 44 6.0 SSW 13 22 7 12 1025.8 1017.1 0.0
07/09:00am 13.7 10.4 8.1 69 3.1 SSW 15 24 8 13 1025.7 1017.0 0.0
07/08:30am 12.9 9.6 8.0 72 2.7 SSW 15 22 8 12 1025.6 1016.9 0.0
07/08:00am 12.4 9.4 9.4 82 1.7 SSW 15 20 8 11 1025.3 1016.6 0.0
07/07:30am 11.7 8.0 9.4 86 1.3 WSW 19 22 10 12 1025.2 1016.5 0.0
07/07:00am 11.1 7.5 8.3 83 1.5 WSW 17 20 9 11 1025.0 1016.2 0.0
07/06:30am 9.5 5.6 7.1 85 1.3 SW 17 19 9 10 1024.8 1016.1 0.0
07/06:00am 9.4 5.5 7.0 85 1.3 WSW 17 19 9 10 1024.6 1015.9 0.0
07/05:30am 9.8 5.5 7.2 84 1.4 WSW 19 22 10 12 1024.3 1015.6 0.0
07/05:00am 9.0 4.6 4.8 75 2.1 WSW 17 19 9 10 1024.2 1015.5 0.0
07/04:30am 9.5 6.6 4.9 73 2.3 W 9 13 5 7 1024.2 1015.5 0.0
07/04:00am 10.0 6.8 6.7 80 1.7 W 13 17 7 9 1024.2 1015.5 0.0
07/03:30am 9.4 6.1 6.5 82 1.5 W 13 17 7 9 1024.3 1015.6 0.0
07/03:00am 9.3 6.3 6.0 80 1.7 WNW 11 15 6 8 1024.3 1015.6 0.0
07/02:30am 7.3 5.0 4.8 84 1.2 WNW 6 7 3 4 1024.6 1015.9 0.0
07/02:00am 8.5 5.3 6.8 89 0.9 WNW 13 15 7 8 1024.6 1015.9 0.0
07/01:30am 9.2 5.3 7.0 86 1.2 WNW 17 19 9 10 1025.0 1016.2 0.0
07/01:00am 9.4 5.5 7.2 86 1.2 WNW 17 19 9 10 1025.2 1016.5 0.0
07/12:30am 9.3 6.6 7.3 87 1.1 NNW 11 15 6 8 1025.3 1016.6 0.0
07/12:00am 8.7 5.9 6.8 88 1.0 NW 11 17 6 9 1025.4 1016.7 0.0
 
Date/Time
EDT
Temp
°C
App
Temp
°C
Dew
Point
Rel
Hum
%
Delta-T
°C
Wind Press
QNH
hPa
Press
MSL
hPa
Rain
since 9 am
mm
Dir
 
Spd
km/h
Gust
km/h
Spd
kts
Gust
kts
06/11:30pm 9.4 6.0 7.8 90 0.9 WNW 15 19 8 10 1025.3 1016.6 0.0
06/11:00pm 8.7 6.6 8.1 96 0.3 NW 9 15 5 8 1025.4 1016.7 0.0
06/10:30pm 8.9 6.8 8.1 95 0.4 NNW 9 11 5 6 1025.4 1016.7 0.0
06/10:00pm 8.2 6.4 8.1 99 0.1 NW 7 11 4 6 1025.6 1016.9 0.0
06/09:30pm 7.9 6.0 7.5 97 0.2 NNW 7 9 4 5 1025.3 1016.6 0.0
06/09:00pm 8.5 6.9 7.9 96 0.3 NNW 6 7 3 4 1025.1 1016.4 0.0
06/08:30pm 10.4 8.5 9.2 92 0.7 NNE 9 13 5 7 1024.8 1016.1 0.0
06/08:00pm 11.4 9.3 9.8 90 0.9 NE 11 15 6 8 1024.6 1015.9 0.0
06/07:30pm 12.1 10.0 9.7 85 1.4 ENE 11 15 6 8 1024.6 1015.9 0.0
06/07:00pm 13.3 10.9 10.1 81 1.8 ENE 13 17 7 9 1024.3 1015.6 0.0
06/06:30pm 13.3 10.7 9.5 78 2.2 ENE 13 20 7 11 1024.1 1015.4 0.0
06/06:00pm 14.4 11.4 9.2 71 2.9 ENE 15 24 8 13 1023.9 1015.1 0.0
06/05:30pm 15.7 13.1 9.4 66 3.6 ENE 13 19 7 10 1023.9 1015.1 0.0
06/05:00pm 16.5 14.6 9.2 62 4.2 E 9 17 5 9 1024.0 1015.2 0.0
06/04:30pm 16.4 14.5 8.9 61 4.3 E 9 19 5 10 1024.1 1015.4 0.0
06/04:00pm 16.1 14.3 9.3 64 3.9 E 9 17 5 9 1024.3 1015.6 0.0
06/03:30pm 16.7 14.4 9.1 61 4.3 E 11 20 6 11 1024.5 1015.7 0.0
06/03:00pm 16.2 13.6 9.2 63 4.0 E 13 20 7 11 1024.6 1015.9 0.0
06/02:30pm 16.1 13.3 8.6 61 4.2 E 13 22 7 12 1024.7 1016.0 0.0
06/02:00pm 16.0 13.6 8.7 62 4.1 E 11 22 6 12 1025.1 1016.4 0.0
06/01:30pm 16.1 13.6 8.3 60 4.4 E 11 19 6 10 1025.1 1016.4 0.0
06/01:00pm 15.4 12.4 7.9 61 4.2 E 13 19 7 10 1025.2 1016.5 0.0
06/12:30pm 15.2 12.4 8.7 65 3.7 E 13 19 7 10 1025.3 1016.6 0.0
06/12:00pm 15.4 12.3 7.2 58 4.5 ESE 13 20 7 11 1025.4 1016.7 0.0
06/11:30am 15.5 13.7 9.4 67 3.5 ESE 9 20 5 11 1025.4 1016.7 0.0
06/11:00am 14.7 13.1 8.6 67 3.4 ESE 7 17 4 9 1025.4 1016.7 0.0
06/10:30am 13.7 11.2 6.6 62 3.8 E 9 19 5 10 1025.4 1016.7 0.0
06/10:00am 14.5 11.3 5.3 54 4.8 ENE 11 19 6 10 1025.3 1016.6 0.0
06/09:30am 14.7 9.9 0.2 37 6.9 ENE 15 30 8 16 1025.2 1016.5 0.0
06/09:00am 14.4 8.1 -3.9 28 7.9 NE 20 33 11 18 1025.1 1016.4 0.0
06/08:30am 13.5 7.7 -1.6 35 6.8 NNE 19 26 10 14 1025.0 1016.2 0.0
06/08:00am 11.9 4.3 -6.0 28 7.2 NNE 26 32 14 17 1024.5 1015.7 0.0
06/07:30am 10.7 3.5 -4.9 33 6.4 NNE 24 32 13 17 1024.1 1015.4 0.0
06/07:00am 9.1 1.7 -3.4 41 5.2 NNE 26 32 14 17 1024.0 1015.2 0.0
06/06:30am 7.6 1.4 -3.0 47 4.4 NNE 20 26 11 14 1023.7 1015.0 0.0
06/06:00am 7.5 1.6 -0.7 56 3.6 NNE 20 26 11 14 1023.6 1014.9 0.0
06/05:30am 7.5 1.7 -0.2 58 3.4 NNE 20 32 11 17 1023.6 1014.9 0.0
06/05:00am 8.0 1.9 0.3 58 3.4 NNE 22 33 12 18 1023.5 1014.7 0.0
06/04:30am 7.4 2.2 2.3 70 2.4 NNE 19 30 10 16 1023.7 1015.0 0.0
06/04:00am 4.9 1.7 2.8 86 1.0 NE 9 30 5 16 1024.0 1015.2 0.0
06/03:30am 4.6 0.9 4.5 99 0.0 NE 13 22 7 12 1024.1 1015.4 0.0
06/03:00am 5.0 0.4 3.8 92 0.6 NE 17 26 9 14 1024.2 1015.5 0.0
06/02:30am 5.5 1.3 3.7 88 0.9 NE 15 24 8 13 1024.5 1015.7 0.0
06/02:00am 5.1 0.7 5.0 99 0.0 NE 17 24 9 13 1024.8 1016.1 0.0
06/01:30am 5.5 0.7 5.4 99 0.0 NNE 20 26 11 14 1024.8 1016.1 0.0
06/01:00am 5.4 1.5 5.3 99 0.0 NNE 15 22 8 12 1025.3 1016.6 0.0
06/12:30am 5.7 2.6 5.6 99 0.0 NNE 11 17 6 9 1025.7 1017.0 0.0
06/12:00am 5.3 2.1 5.2 99 0.0 N 11 17 6 9 1025.8 1017.1 0.0
 
Date/Time
EDT
Temp
°C
App
Temp
°C
Dew
Point
Rel
Hum
%
Delta-T
°C
Wind Press
QNH
hPa
Press
MSL
hPa
Rain
since 9 am
mm
Dir
 
Spd
km/h
Gust
km/h
Spd
kts
Gust
kts
05/11:30pm 5.5 2.7 5.2 98 0.1 NNE 9 15 5 8 1025.9 1017.2 0.0
05/11:00pm 5.6 2.5 5.5 99 0.0 N 11 20 6 11 1026.2 1017.5 0.0
05/10:30pm 6.6 3.7 6.5 99 0.1 NE 11 15 6 8 1026.3 1017.6 0.0
05/10:00pm 6.5 4.0 6.4 99 0.1 N 9 15 5 8 1026.3 1017.6 0.0
05/09:30pm 7.1 3.9 7.0 99 0.1 NNE 13 17 7 9 1026.3 1017.6 0.0
05/09:00pm 7.5 4.4 7.4 99 0.1 NE 13 20 7 11 1025.9 1017.2 0.0
05/08:30pm 7.8 4.0 7.5 98 0.2 NE 17 20 9 11 1025.8 1017.1 0.0
05/08:00pm 8.0 3.9 7.9 99 0.1 NE 19 22 10 12 1025.6 1016.9 0.0
05/07:30pm 8.8 4.8 8.2 96 0.3 ENE 19 24 10 13 1025.6 1016.9 0.0
05/07:00pm 9.6 5.7 7.2 85 1.3 E 17 26 9 14 1025.3 1016.6 0.0
05/06:30pm 9.8 6.0 7.4 85 1.3 E 17 26 9 14 1025.2 1016.5 0.0
05/06:00pm 10.5 6.3 7.6 82 1.6 E 19 26 10 14 1025.2 1016.5 0.0
05/05:30pm 11.4 7.6 7.7 78 2.0 E 17 30 9 16 1025.2 1016.5 0.0
05/05:00pm 11.3 7.5 7.6 78 2.0 E 17 26 9 14 1025.3 1016.6 0.0
05/04:30pm 11.3 7.8 7.4 77 2.1 E 15 28 8 15 1025.3 1016.6 0.0
05/04:00pm 11.8 8.2 8.3 79 1.9 ENE 17 28 9 15 1025.3 1016.6 0.0
05/03:30pm 11.8 7.7 8.6 81 1.8 ENE 20 32 11 17 1025.3 1016.6 0.0
05/03:00pm 11.6 7.7 7.3 75 2.3 E 17 26 9 14 1025.6 1016.9 0.0
05/02:30pm 11.5 7.8 7.8 78 2.0 ENE 17 30 9 16 1025.7 1017.0 0.0
05/02:00pm 10.7 6.7 6.6 76 2.2 ENE 17 28 9 15 1025.6 1016.9 0.0
05/01:30pm 10.9 6.7 7.6 80 1.8 ENE 19 30 10 16 1025.7 1017.0 0.0
05/01:00pm 10.5 6.2 6.8 78 1.9 ENE 19 32 10 17 1025.8 1017.1 0.0
05/12:30pm 10.3 6.0 6.8 79 1.8 E 19 26 10 14 1025.9 1017.2 0.0
05/12:00pm 9.6 5.5 6.1 79 1.8 ENE 17 26 9 14 1026.0 1017.4 0.0
05/11:30am 9.0 5.6 5.9 81 1.6 ENE 13 22 7 12 1026.0 1017.4 0.0

Other Formats:

Comma delimited format used in spreadsheet applications
http://www.bom.gov.au/fwo/IDN60801/IDN60801.95909.axf

JavaScript Object Notation format (JSON) in row-major order
http://www.bom.gov.au/fwo/IDN60801/IDN60801.95909.json